createdAt,value
2023-02-27T00:01:39.415Z,3
2023-02-27T00:03:23.116Z,2
2023-02-27T00:05:06.892Z,3
2023-02-27T00:06:50.517Z,2
2023-02-27T00:08:34.226Z,3
2023-02-27T00:10:17.933Z,2
2023-02-27T00:12:01.628Z,11
2023-02-27T00:13:45.337Z,11
2023-02-27T00:15:29.032Z,11
2023-02-27T00:17:12.737Z,2
2023-02-27T00:18:56.437Z,3
2023-02-27T00:20:40.138Z,3
2023-02-27T00:22:23.837Z,3
2023-02-27T00:24:07.543Z,2
2023-02-27T00:25:51.252Z,3
2023-02-27T00:27:34.955Z,3
2023-02-27T00:29:18.645Z,3
2023-02-27T00:31:02.351Z,2
2023-02-27T00:32:46.064Z,3
2023-02-27T00:34:29.761Z,2
2023-02-27T00:36:13.464Z,2
2023-02-27T00:37:57.155Z,2
2023-02-27T00:39:40.862Z,11
2023-02-27T00:41:24.569Z,11
2023-02-27T00:43:08.264Z,11
2023-02-27T00:44:51.987Z,3
2023-02-27T00:46:35.673Z,3
2023-02-27T00:48:19.384Z,2
2023-02-27T00:50:03.080Z,3
2023-02-27T00:51:46.788Z,2
2023-02-27T00:53:30.488Z,4
2023-02-27T00:55:14.193Z,2
2023-02-27T00:56:57.884Z,2
2023-02-27T00:58:41.587Z,2
2023-02-27T01:00:25.291Z,2
2023-02-27T01:02:08.990Z,11
2023-02-27T01:03:52.730Z,11
2023-02-27T01:05:36.399Z,11
2023-02-27T01:07:20.116Z,11
2023-02-27T01:09:03.808Z,3
2023-02-27T01:10:47.565Z,3
2023-02-27T01:12:31.221Z,3
2023-02-27T01:14:14.961Z,2
2023-02-27T01:15:58.628Z,2
2023-02-27T01:17:42.338Z,11
2023-02-27T01:19:26.024Z,12
2023-02-27T01:21:09.727Z,11
2023-02-27T01:22:53.436Z,11
2023-02-27T01:24:37.136Z,2
2023-02-27T01:26:20.836Z,2
2023-02-27T01:28:04.542Z,2
2023-02-27T01:29:48.236Z,2
2023-02-27T01:31:31.945Z,2
2023-02-27T01:33:15.643Z,2
2023-02-27T01:34:59.349Z,3
2023-02-27T01:36:43.063Z,11
2023-02-27T01:38:26.755Z,11
2023-02-27T01:40:10.453Z,11
2023-02-27T01:41:54.162Z,11
2023-02-27T01:43:37.860Z,3
2023-02-27T01:45:21.574Z,3
2023-02-27T01:48:48.963Z,3
2023-02-27T01:50:32.677Z,2
2023-02-27T01:52:16.365Z,2
2023-02-27T01:54:00.073Z,3
2023-02-27T01:55:43.770Z,3
2023-02-27T01:57:27.477Z,1
2023-02-27T01:59:11.175Z,3
2023-02-27T02:00:54.861Z,2
2023-02-27T02:02:38.591Z,3
2023-02-27T02:04:22.279Z,3
2023-02-27T02:06:05.980Z,2
2023-02-27T02:07:49.714Z,1
2023-02-27T02:09:33.401Z,2
2023-02-27T02:11:17.087Z,3
2023-02-27T02:13:00.794Z,1
2023-02-27T02:14:44.488Z,3
2023-02-27T02:16:28.192Z,3
2023-02-27T02:19:55.592Z,2
2023-02-27T02:21:39.293Z,2
2023-02-27T02:23:23.005Z,3
2023-02-27T02:25:06.705Z,3
2023-02-27T02:26:50.420Z,2
2023-02-27T02:28:34.108Z,3
2023-02-27T02:30:17.812Z,3
2023-02-27T02:32:01.517Z,3
2023-02-27T02:33:45.219Z,2
2023-02-27T02:35:28.919Z,2
2023-02-27T02:37:12.627Z,3
2023-02-27T02:38:56.321Z,3
2023-02-27T02:40:40.029Z,3
2023-02-27T02:42:23.738Z,3
2023-02-27T02:44:07.440Z,2
2023-02-27T02:45:51.138Z,2
2023-02-27T02:47:34.837Z,2
2023-02-27T02:49:18.541Z,3
2023-02-27T02:51:02.242Z,2
2023-02-27T02:52:45.958Z,2
2023-02-27T02:54:29.675Z,2
2023-02-27T02:56:13.353Z,3
2023-02-27T02:57:57.064Z,2
2023-02-27T02:59:40.767Z,2
2023-02-27T03:01:24.457Z,3
2023-02-27T03:03:08.171Z,3
2023-02-27T03:04:51.870Z,3
2023-02-27T03:06:35.570Z,2
2023-02-27T03:08:19.281Z,3
2023-02-27T03:10:02.987Z,2
2023-02-27T03:11:46.685Z,2
2023-02-27T03:13:30.389Z,3
2023-02-27T03:15:14.099Z,3
2023-02-27T03:16:57.818Z,3
2023-02-27T03:18:41.504Z,3
2023-02-27T03:20:25.208Z,2
2023-02-27T03:22:08.918Z,1
2023-02-27T03:23:52.603Z,3
2023-02-27T03:25:36.312Z,2
2023-02-27T03:27:20.025Z,3
2023-02-27T03:29:03.717Z,3
2023-02-27T03:30:47.424Z,2
2023-02-27T03:32:31.115Z,2
2023-02-27T03:34:14.855Z,2
2023-02-27T03:35:58.534Z,2
2023-02-27T03:37:42.232Z,3
2023-02-27T03:39:25.932Z,3
2023-02-27T03:41:09.631Z,3
2023-02-27T03:42:53.330Z,2
2023-02-27T03:44:37.032Z,3
2023-02-27T03:46:20.730Z,2
2023-02-27T03:48:04.433Z,3
2023-02-27T03:49:48.139Z,2
2023-02-27T03:51:31.855Z,3
2023-02-27T03:53:15.546Z,3
2023-02-27T03:54:59.248Z,2
2023-02-27T03:56:42.970Z,3
2023-02-27T03:58:26.658Z,2
2023-02-27T04:00:10.351Z,2
2023-02-27T04:01:54.055Z,3
2023-02-27T04:03:37.764Z,3
2023-02-27T04:05:21.460Z,2
2023-02-27T04:07:05.160Z,3
2023-02-27T04:08:48.900Z,3
2023-02-27T04:10:32.566Z,3
2023-02-27T04:12:16.280Z,2
2023-02-27T04:13:59.979Z,3
2023-02-27T04:15:43.676Z,3
2023-02-27T04:17:27.381Z,3
2023-02-27T04:19:11.077Z,3
2023-02-27T04:20:54.796Z,2
2023-02-27T04:22:38.486Z,2
2023-02-27T04:24:22.188Z,1
2023-02-27T04:26:05.890Z,3
2023-02-27T04:27:49.607Z,3
2023-02-27T04:29:33.298Z,3
2023-02-27T04:31:17.001Z,3
2023-02-27T04:33:00.707Z,3
2023-02-27T04:34:44.421Z,3
2023-02-27T04:36:28.105Z,2
2023-02-27T04:38:11.811Z,3
2023-02-27T04:39:55.560Z,2
2023-02-27T04:41:39.234Z,2
2023-02-27T04:43:22.922Z,3
2023-02-27T04:45:06.623Z,2
2023-02-27T04:46:50.319Z,3
2023-02-27T04:48:34.026Z,2
2023-02-27T04:50:17.724Z,3
2023-02-27T04:52:01.438Z,2
2023-02-27T04:53:45.138Z,2
2023-02-27T04:55:28.842Z,3
2023-02-27T04:57:12.548Z,3
2023-02-27T04:58:56.251Z,2
2023-02-27T05:00:39.955Z,2
2023-02-27T05:02:23.648Z,2
2023-02-27T05:04:07.354Z,3
2023-02-27T05:05:51.057Z,3
2023-02-27T05:07:34.766Z,2
2023-02-27T05:09:18.460Z,3
2023-02-27T05:11:02.306Z,2
2023-02-27T05:12:45.868Z,3
2023-02-27T05:14:29.563Z,2
2023-02-27T05:16:13.279Z,3
2023-02-27T05:17:56.969Z,3
2023-02-27T05:19:40.672Z,2
2023-02-27T05:21:24.373Z,3
2023-02-27T05:23:08.079Z,2
2023-02-27T05:24:51.781Z,3
2023-02-27T05:26:35.484Z,3
2023-02-27T05:28:19.194Z,3
2023-02-27T05:30:02.881Z,3
2023-02-27T05:31:46.592Z,3
2023-02-27T05:33:30.297Z,3
2023-02-27T05:35:14.002Z,3
2023-02-27T05:36:57.703Z,3
2023-02-27T05:38:41.403Z,2
2023-02-27T05:40:25.106Z,3
2023-02-27T05:42:08.806Z,3
2023-02-27T05:43:52.506Z,3
2023-02-27T05:45:36.204Z,3
2023-02-27T05:47:19.918Z,4
2023-02-27T05:49:03.615Z,4
2023-02-27T05:50:47.313Z,5
2023-02-27T05:52:31.018Z,6
2023-02-27T05:54:14.725Z,7
2023-02-27T05:55:58.418Z,9
2023-02-27T05:57:42.124Z,10
2023-02-27T05:59:25.847Z,12
2023-02-27T06:01:09.535Z,16
2023-02-27T06:02:53.224Z,18
2023-02-27T06:04:36.933Z,23
2023-02-27T06:06:20.632Z,27
2023-02-27T06:08:04.338Z,32
2023-02-27T06:09:48.030Z,37
2023-02-27T06:11:31.736Z,43
2023-02-27T06:13:15.450Z,105
2023-02-27T06:14:59.138Z,111
2023-02-27T06:16:42.850Z,116
2023-02-27T06:18:26.560Z,126
2023-02-27T06:20:10.252Z,133
2023-02-27T06:21:53.959Z,141
2023-02-27T06:23:37.670Z,150
2023-02-27T06:25:21.362Z,159
2023-02-27T06:27:05.086Z,169
2023-02-27T06:28:48.775Z,179
2023-02-27T06:30:32.482Z,191
2023-02-27T06:32:16.196Z,204
2023-02-27T06:33:59.883Z,222
2023-02-27T06:35:43.587Z,246
2023-02-27T06:37:27.290Z,277
2023-02-27T06:39:10.986Z,286
2023-02-27T06:40:54.686Z,255
2023-02-27T06:42:38.386Z,278
2023-02-27T06:44:22.112Z,318
2023-02-27T06:46:05.793Z,354
2023-02-27T06:47:49.491Z,407
2023-02-27T06:49:33.195Z,438
2023-02-27T06:51:16.899Z,461
2023-02-27T06:53:00.600Z,476
2023-02-27T06:54:44.306Z,498
2023-02-27T06:56:28.009Z,522
2023-02-27T06:58:11.701Z,556
2023-02-27T06:59:55.411Z,568
2023-02-27T07:01:39.111Z,570
2023-02-27T07:03:22.823Z,602
2023-02-27T07:05:06.518Z,628
2023-02-27T07:06:50.232Z,645
2023-02-27T07:08:33.924Z,664
2023-02-27T07:10:26.162Z,693
2023-02-27T07:12:31.312Z,715
2023-02-27T07:14:37.378Z,735
2023-02-27T07:16:43.444Z,739
2023-02-27T07:18:49.517Z,739
2023-02-27T07:20:54.860Z,738
2023-02-27T07:22:59.905Z,740
2023-02-27T07:25:04.964Z,733
2023-02-27T07:27:10.004Z,740
2023-02-27T07:29:15.051Z,730
2023-02-27T07:31:20.109Z,739
2023-02-27T07:33:25.128Z,730
2023-02-27T07:35:30.173Z,738
2023-02-27T07:37:35.228Z,730
2023-02-27T07:39:40.277Z,739
2023-02-27T07:41:45.308Z,733
2023-02-27T07:43:50.355Z,739
2023-02-27T07:45:55.429Z,739
2023-02-27T07:48:00.449Z,739
2023-02-27T07:50:05.549Z,738
2023-02-27T07:52:10.538Z,738
2023-02-27T07:54:15.756Z,738
2023-02-27T07:56:14.362Z,739
2023-02-27T07:57:57.944Z,739
2023-02-27T07:59:41.627Z,738
2023-02-27T08:01:25.433Z,735
2023-02-27T08:03:09.142Z,739
2023-02-27T08:04:52.751Z,738
2023-02-27T08:06:36.438Z,738
2023-02-27T08:08:20.144Z,739
2023-02-27T08:10:03.845Z,739
2023-02-27T08:11:47.548Z,739
2023-02-27T08:13:31.243Z,739
2023-02-27T08:15:14.950Z,729
2023-02-27T08:16:58.704Z,739
2023-02-27T08:18:42.353Z,739
2023-02-27T08:20:26.127Z,739
2023-02-27T08:22:09.754Z,738
2023-02-27T08:23:53.464Z,740
2023-02-27T08:25:37.149Z,740
2023-02-27T08:27:20.868Z,739
2023-02-27T08:29:04.588Z,737
2023-02-27T08:30:48.258Z,739
2023-02-27T08:32:31.955Z,740
2023-02-27T08:34:15.669Z,739
2023-02-27T08:35:59.371Z,738
2023-02-27T08:37:43.118Z,739
2023-02-27T08:39:26.778Z,739
2023-02-27T08:41:10.484Z,738
2023-02-27T08:42:54.182Z,739
2023-02-27T08:44:37.876Z,739
2023-02-27T08:46:21.590Z,740
2023-02-27T08:48:05.328Z,738
2023-02-27T08:49:48.992Z,738
2023-02-27T08:51:32.762Z,739
2023-02-27T08:53:16.386Z,740
2023-02-27T08:55:00.144Z,739
2023-02-27T08:56:43.803Z,739
2023-02-27T08:58:27.487Z,739
2023-02-27T09:00:11.196Z,740
2023-02-27T09:01:54.938Z,739
2023-02-27T09:03:38.628Z,739
2023-02-27T09:05:22.308Z,739
2023-02-27T09:07:06.007Z,739
2023-02-27T09:08:49.705Z,738
2023-02-27T09:10:33.419Z,738
2023-02-27T09:12:17.118Z,739
2023-02-27T09:14:00.819Z,739
2023-02-27T09:15:44.513Z,739
2023-02-27T09:17:28.229Z,738
2023-02-27T09:19:11.933Z,739
2023-02-27T09:20:55.667Z,740
2023-02-27T09:22:39.346Z,739
2023-02-27T09:24:23.107Z,738
2023-02-27T09:26:06.727Z,739
2023-02-27T09:27:50.437Z,740
2023-02-27T09:29:34.126Z,740
2023-02-27T09:31:17.835Z,739
2023-02-27T09:33:01.614Z,739
2023-02-27T09:34:45.239Z,740
2023-02-27T09:36:28.999Z,739
2023-02-27T09:38:12.660Z,738
2023-02-27T09:39:56.397Z,739
2023-02-27T09:41:40.061Z,739
2023-02-27T09:43:23.757Z,739
2023-02-27T09:45:07.465Z,739
2023-02-27T09:46:51.160Z,739
2023-02-27T09:48:34.861Z,740
2023-02-27T09:50:18.630Z,740
2023-02-27T09:52:02.286Z,739
2023-02-27T09:53:45.968Z,739
2023-02-27T09:55:29.672Z,739
2023-02-27T09:57:13.406Z,739
2023-02-27T09:58:57.087Z,738
2023-02-27T10:00:40.786Z,739
2023-02-27T10:02:24.483Z,740
2023-02-27T10:04:08.181Z,740
2023-02-27T10:05:51.896Z,739
2023-02-27T10:07:35.650Z,739
2023-02-27T10:09:19.300Z,740
2023-02-27T10:11:02.999Z,740
2023-02-27T10:12:46.706Z,739
2023-02-27T10:14:30.407Z,739
2023-02-27T10:16:14.238Z,740
2023-02-27T10:17:57.814Z,740
2023-02-27T10:19:41.583Z,740
2023-02-27T10:21:25.213Z,739
2023-02-27T10:23:08.913Z,739
2023-02-27T10:24:52.625Z,740
2023-02-27T10:26:36.327Z,740
2023-02-27T10:28:20.028Z,739
2023-02-27T10:30:03.729Z,739
2023-02-27T10:31:47.455Z,741
2023-02-27T10:33:31.169Z,740
2023-02-27T10:35:14.838Z,739
2023-02-27T10:36:58.572Z,739
2023-02-27T10:38:42.260Z,740
2023-02-27T10:40:25.944Z,740
2023-02-27T10:42:09.678Z,739
2023-02-27T10:43:53.345Z,739
2023-02-27T10:45:37.067Z,740
2023-02-27T10:47:20.844Z,740
2023-02-27T10:49:04.453Z,739
2023-02-27T10:50:48.205Z,740
2023-02-27T10:52:31.861Z,740
2023-02-27T10:54:15.617Z,741
2023-02-27T10:55:59.353Z,740
2023-02-27T10:57:42.978Z,739
2023-02-27T10:59:26.673Z,740
2023-02-27T11:01:10.415Z,740
2023-02-27T11:02:54.131Z,739
2023-02-27T11:04:37.804Z,738
2023-02-27T11:06:21.486Z,739
2023-02-27T11:08:05.191Z,740
2023-02-27T11:09:48.900Z,739
2023-02-27T11:11:32.587Z,739
2023-02-27T11:13:16.303Z,741
2023-02-27T11:15:00.000Z,741
2023-02-27T11:16:43.694Z,739
2023-02-27T11:18:27.420Z,739
2023-02-27T11:20:11.098Z,737
2023-02-27T11:21:54.846Z,741
2023-02-27T11:23:38.513Z,739
2023-02-27T11:25:22.225Z,739
2023-02-27T11:27:05.924Z,740
2023-02-27T11:28:49.622Z,740
2023-02-27T11:30:33.322Z,739
2023-02-27T11:32:17.073Z,739
2023-02-27T11:34:00.762Z,731
2023-02-27T11:35:44.439Z,740
2023-02-27T11:37:28.135Z,738
2023-02-27T11:39:11.840Z,739
2023-02-27T11:40:55.579Z,741
2023-02-27T11:42:39.273Z,740
2023-02-27T11:44:22.981Z,739
2023-02-27T11:46:06.725Z,739
2023-02-27T11:47:50.357Z,731
2023-02-27T11:49:34.074Z,740
2023-02-27T11:51:17.760Z,740
2023-02-27T11:53:01.461Z,740
2023-02-27T11:54:45.162Z,741
2023-02-27T11:56:28.877Z,740
2023-02-27T11:58:12.563Z,739
2023-02-27T11:59:56.274Z,740
2023-02-27T12:01:40.049Z,732
2023-02-27T12:03:23.787Z,740
2023-02-27T12:05:07.447Z,739
2023-02-27T12:06:51.074Z,740
2023-02-27T12:08:34.863Z,740
2023-02-27T12:10:18.487Z,740
2023-02-27T12:12:02.229Z,739
2023-02-27T12:13:45.911Z,740
2023-02-27T12:15:29.622Z,739
2023-02-27T12:17:13.298Z,740
2023-02-27T12:18:57.128Z,740
2023-02-27T12:20:40.721Z,740
2023-02-27T12:22:24.407Z,740
2023-02-27T12:24:08.115Z,740
2023-02-27T12:25:51.806Z,740
2023-02-27T12:27:35.510Z,739
2023-02-27T12:29:19.213Z,738
2023-02-27T12:31:02.908Z,740
2023-02-27T12:32:46.612Z,740
2023-02-27T12:34:30.332Z,740
2023-02-27T12:36:14.047Z,739
2023-02-27T12:37:57.736Z,740
2023-02-27T12:39:41.417Z,741
2023-02-27T12:41:25.138Z,739
2023-02-27T12:43:08.829Z,739
2023-02-27T12:44:52.534Z,740
2023-02-27T12:46:36.222Z,740
2023-02-27T12:48:19.949Z,739
2023-02-27T12:50:03.666Z,740
2023-02-27T12:51:47.340Z,740
2023-02-27T12:53:31.075Z,739
2023-02-27T12:55:14.746Z,740
2023-02-27T12:56:58.447Z,729
2023-02-27T12:58:42.142Z,740
2023-02-27T13:00:25.849Z,740
2023-02-27T13:02:09.549Z,739
2023-02-27T13:03:53.247Z,740
2023-02-27T13:05:36.976Z,741
2023-02-27T13:07:20.659Z,740
2023-02-27T13:09:04.595Z,740
2023-02-27T13:10:48.067Z,731
2023-02-27T13:12:31.779Z,740
2023-02-27T13:14:15.486Z,741
2023-02-27T13:15:59.175Z,741
2023-02-27T13:17:42.872Z,740
2023-02-27T13:19:26.585Z,740
2023-02-27T13:21:10.276Z,740
2023-02-27T13:22:54.048Z,740
2023-02-27T13:24:37.682Z,730
2023-02-27T13:26:21.389Z,740
2023-02-27T13:28:05.122Z,741
2023-02-27T13:29:48.790Z,741
2023-02-27T13:31:32.549Z,740
2023-02-27T13:33:16.227Z,739
2023-02-27T13:34:59.899Z,740
2023-02-27T13:36:43.607Z,740
2023-02-27T13:38:27.311Z,739
2023-02-27T13:40:11.000Z,739
2023-02-27T13:41:54.704Z,740
2023-02-27T13:43:38.397Z,741
2023-02-27T13:45:22.178Z,740
2023-02-27T13:47:05.813Z,740
2023-02-27T13:48:49.544Z,740
2023-02-27T13:50:33.248Z,740
2023-02-27T13:52:16.933Z,731
2023-02-27T13:54:00.694Z,740
2023-02-27T13:55:44.332Z,740
2023-02-27T13:57:28.079Z,740
2023-02-27T13:59:11.799Z,739
2023-02-27T14:00:55.441Z,740
2023-02-27T14:02:39.151Z,740
2023-02-27T14:04:22.845Z,741
2023-02-27T14:06:06.551Z,739
2023-02-27T14:07:50.249Z,740
2023-02-27T14:09:33.957Z,741
2023-02-27T14:11:17.656Z,741
2023-02-27T14:13:01.412Z,740
2023-02-27T14:14:45.051Z,739
2023-02-27T14:16:28.748Z,740
2023-02-27T14:18:12.456Z,740
2023-02-27T14:19:56.156Z,739
2023-02-27T14:21:39.884Z,740
2023-02-27T14:23:23.571Z,740
2023-02-27T14:25:07.374Z,740
2023-02-27T14:26:50.980Z,740
2023-02-27T14:28:34.712Z,740
2023-02-27T14:30:18.371Z,741
2023-02-27T14:32:02.073Z,740
2023-02-27T14:33:45.780Z,732
2023-02-27T14:35:29.509Z,740
2023-02-27T14:37:13.191Z,740
2023-02-27T14:38:56.910Z,740
2023-02-27T14:40:40.591Z,739
2023-02-27T14:42:24.297Z,740
2023-02-27T14:44:07.987Z,740
2023-02-27T14:45:51.693Z,740
2023-02-27T14:47:35.400Z,731
2023-02-27T14:49:19.104Z,739
2023-02-27T14:51:02.811Z,733
2023-02-27T14:52:46.515Z,680
2023-02-27T14:54:30.218Z,676
2023-02-27T14:56:13.901Z,673
2023-02-27T14:57:57.604Z,679
2023-02-27T14:59:41.321Z,676
2023-02-27T15:01:25.024Z,694
2023-02-27T15:03:08.724Z,727
2023-02-27T15:04:52.421Z,740
2023-02-27T15:06:36.121Z,730
2023-02-27T15:08:19.824Z,714
2023-02-27T15:10:03.535Z,656
2023-02-27T15:11:47.235Z,636
2023-02-27T15:13:30.935Z,602
2023-02-27T15:15:14.639Z,580
2023-02-27T15:16:58.340Z,552
2023-02-27T15:18:42.042Z,556
2023-02-27T15:20:25.744Z,598
2023-02-27T15:22:09.448Z,630
2023-02-27T15:23:53.146Z,627
2023-02-27T15:25:36.848Z,580
2023-02-27T15:27:20.550Z,503
2023-02-27T15:29:04.256Z,440
2023-02-27T15:30:47.946Z,401
2023-02-27T15:32:31.660Z,380
2023-02-27T15:34:15.355Z,374
2023-02-27T15:35:59.062Z,384
2023-02-27T15:37:42.757Z,378
2023-02-27T15:39:26.467Z,363
2023-02-27T15:41:10.170Z,359
2023-02-27T15:42:53.875Z,341
2023-02-27T15:44:37.572Z,330
2023-02-27T15:46:21.281Z,319
2023-02-27T15:48:04.978Z,305
2023-02-27T15:49:48.681Z,305
2023-02-27T15:51:32.392Z,307
2023-02-27T15:53:16.084Z,302
2023-02-27T15:54:59.789Z,288
2023-02-27T15:56:43.494Z,278
2023-02-27T15:58:27.188Z,266
2023-02-27T16:00:10.893Z,240
2023-02-27T16:01:54.601Z,224
2023-02-27T16:03:38.291Z,218
2023-02-27T16:05:22.004Z,215
2023-02-27T16:07:05.780Z,204
2023-02-27T16:08:49.402Z,201
2023-02-27T16:10:33.111Z,190
2023-02-27T16:12:16.812Z,174
2023-02-27T16:14:00.545Z,148
2023-02-27T16:15:44.276Z,134
2023-02-27T16:17:28.023Z,120
2023-02-27T16:19:11.622Z,109
2023-02-27T16:20:55.318Z,102
2023-02-27T16:22:39.038Z,95
2023-02-27T16:24:22.732Z,89
2023-02-27T16:26:06.425Z,82
2023-02-27T16:27:50.132Z,74
2023-02-27T16:29:33.840Z,67
2023-02-27T16:31:17.537Z,62
2023-02-27T16:33:01.243Z,57
2023-02-27T16:34:44.933Z,56
2023-02-27T16:36:28.664Z,50
2023-02-27T16:38:12.353Z,45
2023-02-27T16:39:56.062Z,39
2023-02-27T16:41:39.747Z,34
2023-02-27T16:43:23.489Z,30
2023-02-27T16:45:07.153Z,28
2023-02-27T16:46:50.866Z,25
2023-02-27T16:48:34.566Z,23
2023-02-27T16:50:18.261Z,20
2023-02-27T16:52:01.970Z,18
2023-02-27T16:53:45.661Z,17
2023-02-27T16:55:29.368Z,15
2023-02-27T16:57:13.073Z,14
2023-02-27T16:58:56.770Z,13
2023-02-27T17:00:40.473Z,12
2023-02-27T17:02:24.197Z,12
2023-02-27T17:04:07.880Z,10
2023-02-27T17:05:51.644Z,9
2023-02-27T17:07:35.275Z,8
2023-02-27T17:09:18.986Z,7
2023-02-27T17:11:02.697Z,6
2023-02-27T17:12:46.394Z,11
2023-02-27T17:14:30.097Z,6
2023-02-27T17:16:13.801Z,5
2023-02-27T17:17:57.495Z,5
2023-02-27T17:19:41.263Z,3
2023-02-27T17:21:24.904Z,3
2023-02-27T17:23:08.602Z,4
2023-02-27T17:24:52.321Z,3
2023-02-27T17:26:36.011Z,22
2023-02-27T17:28:19.715Z,3
2023-02-27T17:30:03.410Z,2
2023-02-27T17:31:47.111Z,2
2023-02-27T17:33:30.818Z,3
2023-02-27T17:35:14.540Z,3
2023-02-27T17:36:58.231Z,3
2023-02-27T17:38:41.938Z,2
2023-02-27T17:40:25.623Z,2
2023-02-27T17:42:09.329Z,3
2023-02-27T17:43:53.037Z,2
2023-02-27T17:45:36.780Z,2
2023-02-27T17:47:20.448Z,2
2023-02-27T17:49:04.173Z,3
2023-02-27T17:50:47.848Z,2
2023-02-27T17:52:31.566Z,3
2023-02-27T17:54:15.248Z,2
2023-02-27T17:55:58.951Z,3
2023-02-27T17:57:42.652Z,7
2023-02-27T17:59:26.359Z,7
2023-02-27T18:01:10.064Z,7
2023-02-27T18:02:53.761Z,6
2023-02-27T18:04:37.455Z,7
2023-02-27T18:06:21.178Z,6
2023-02-27T18:08:04.863Z,7
2023-02-27T18:09:48.559Z,7
2023-02-27T18:11:32.262Z,7
2023-02-27T18:13:15.978Z,7
2023-02-27T18:14:59.686Z,6
2023-02-27T18:16:43.386Z,7
2023-02-27T18:18:27.090Z,7
2023-02-27T18:20:10.780Z,7
2023-02-27T18:21:54.479Z,7
2023-02-27T18:23:38.194Z,6
2023-02-27T18:25:21.912Z,7
2023-02-27T18:28:49.294Z,7
2023-02-27T18:30:33.002Z,8
2023-02-27T18:32:16.694Z,8
2023-02-27T18:34:00.447Z,7
2023-02-27T18:35:44.094Z,7
2023-02-27T18:37:27.843Z,8
2023-02-27T18:39:11.504Z,7
2023-02-27T18:40:55.210Z,7
2023-02-27T18:42:38.902Z,7
2023-02-27T18:44:22.683Z,7
2023-02-27T18:46:06.310Z,7
2023-02-27T18:47:50.015Z,7
2023-02-27T18:49:33.712Z,7
2023-02-27T18:51:17.467Z,7
2023-02-27T18:53:01.128Z,7
2023-02-27T18:54:44.826Z,7
2023-02-27T18:56:28.536Z,7
2023-02-27T18:58:12.233Z,7
2023-02-27T18:59:55.933Z,8
2023-02-27T19:01:39.817Z,7
2023-02-27T19:03:23.334Z,7
2023-02-27T19:05:07.058Z,8
2023-02-27T19:06:50.754Z,7
2023-02-27T19:08:34.452Z,7
2023-02-27T19:10:18.165Z,8
2023-02-27T19:12:01.859Z,7
2023-02-27T19:13:45.554Z,8
2023-02-27T19:15:29.253Z,8
2023-02-27T19:17:12.977Z,7
2023-02-27T19:18:56.673Z,7
2023-02-27T19:20:40.360Z,7
2023-02-27T19:22:24.061Z,8
2023-02-27T19:24:07.789Z,7
2023-02-27T19:25:51.489Z,7
2023-02-27T19:27:35.237Z,7
2023-02-27T19:29:18.870Z,7
2023-02-27T19:31:02.575Z,7
2023-02-27T19:32:46.268Z,7
2023-02-27T19:34:30.017Z,8
2023-02-27T19:36:13.679Z,7
2023-02-27T19:37:57.381Z,7
2023-02-27T19:41:24.803Z,7
2023-02-27T19:43:08.490Z,7
2023-02-27T19:44:52.247Z,7
2023-02-27T19:46:35.892Z,8
2023-02-27T19:48:19.603Z,6
2023-02-27T19:50:03.420Z,7
2023-02-27T19:51:47.060Z,7
2023-02-27T19:53:30.706Z,3
2023-02-27T19:55:14.390Z,3
2023-02-27T19:56:58.142Z,3
2023-02-27T19:58:41.841Z,2
2023-02-27T20:00:25.534Z,11
2023-02-27T20:02:09.231Z,11
2023-02-27T20:03:52.922Z,12
2023-02-27T20:05:36.626Z,11
2023-02-27T20:07:20.330Z,12
2023-02-27T20:09:04.028Z,11
2023-02-27T20:10:47.729Z,12
2023-02-27T20:12:31.436Z,12
2023-02-27T20:14:15.176Z,11
2023-02-27T20:15:58.843Z,12
2023-02-27T20:17:42.543Z,12
2023-02-27T20:19:26.259Z,23
2023-02-27T20:21:09.941Z,22
2023-02-27T20:22:53.646Z,22
2023-02-27T20:24:37.500Z,22
2023-02-27T20:26:21.058Z,23
2023-02-27T20:28:04.747Z,22
2023-02-27T20:29:48.455Z,22
2023-02-27T20:31:32.179Z,2
2023-02-27T20:33:15.844Z,3
2023-02-27T20:34:59.554Z,2
2023-02-27T20:36:43.262Z,3
2023-02-27T20:38:26.970Z,3
2023-02-27T20:40:10.673Z,2
2023-02-27T20:41:54.425Z,2
2023-02-27T20:43:38.082Z,2
2023-02-27T20:45:21.795Z,2
2023-02-27T20:47:05.490Z,2
2023-02-27T20:48:49.175Z,3
2023-02-27T20:52:16.575Z,2
2023-02-27T20:54:00.294Z,2
2023-02-27T20:55:44.008Z,3
2023-02-27T20:57:27.713Z,2
2023-02-27T20:59:11.403Z,3
2023-02-27T21:00:55.089Z,11
2023-02-27T21:02:38.803Z,11
2023-02-27T21:04:22.505Z,11
2023-02-27T21:06:06.202Z,3
2023-02-27T21:07:49.925Z,11
2023-02-27T21:09:33.612Z,3
2023-02-27T21:11:17.315Z,2
2023-02-27T21:13:01.015Z,3
2023-02-27T21:14:44.723Z,3
2023-02-27T21:16:28.446Z,2
2023-02-27T21:18:12.130Z,3
2023-02-27T21:19:55.806Z,3
2023-02-27T21:21:39.601Z,11
2023-02-27T21:23:23.256Z,12
2023-02-27T21:25:06.936Z,2
2023-02-27T21:26:50.635Z,2
2023-02-27T21:28:34.322Z,2
2023-02-27T21:30:18.034Z,2
2023-02-27T21:32:01.734Z,3
2023-02-27T21:33:45.439Z,3
2023-02-27T21:35:29.179Z,2
2023-02-27T21:37:12.894Z,3
2023-02-27T21:38:56.544Z,3
2023-02-27T21:40:40.258Z,2
2023-02-27T21:42:23.957Z,3
2023-02-27T21:44:07.651Z,11
2023-02-27T21:45:51.371Z,4
2023-02-27T21:47:35.059Z,3
2023-02-27T21:49:18.768Z,2
2023-02-27T21:51:02.494Z,11
2023-02-27T21:52:46.167Z,11
2023-02-27T21:54:29.933Z,11
2023-02-27T21:56:13.576Z,11
2023-02-27T21:57:57.302Z,11
2023-02-27T21:59:40.989Z,2
2023-02-27T22:01:24.686Z,2
2023-02-27T22:03:08.381Z,3
2023-02-27T22:04:52.078Z,2
2023-02-27T22:06:35.790Z,1
2023-02-27T22:08:19.483Z,2
2023-02-27T22:10:03.204Z,3
2023-02-27T22:11:46.891Z,3
2023-02-27T22:13:30.602Z,2
2023-02-27T22:15:14.283Z,3
2023-02-27T22:16:58.011Z,3
2023-02-27T22:18:41.706Z,3
2023-02-27T22:20:25.402Z,10
2023-02-27T22:22:09.151Z,11
2023-02-27T22:23:52.916Z,3
2023-02-27T22:25:36.509Z,3
2023-02-27T22:27:20.350Z,3
2023-02-27T22:29:03.999Z,3
2023-02-27T22:30:47.734Z,2
2023-02-27T22:32:31.409Z,3
2023-02-27T22:34:15.080Z,2
2023-02-27T22:35:58.728Z,2
2023-02-27T22:37:42.556Z,2
2023-02-27T22:39:26.128Z,2
2023-02-27T22:41:09.827Z,2
2023-02-27T22:42:53.528Z,3
2023-02-27T22:44:37.240Z,2
2023-02-27T22:46:20.941Z,3
2023-02-27T22:48:04.662Z,2
2023-02-27T22:49:48.412Z,2
2023-02-27T22:51:32.076Z,2
2023-02-27T22:53:15.744Z,3
2023-02-27T22:54:59.464Z,10
2023-02-27T22:56:43.152Z,11
2023-02-27T22:58:26.855Z,11
2023-02-27T23:00:10.561Z,11
2023-02-27T23:01:54.265Z,11
2023-02-27T23:03:37.958Z,11
2023-02-27T23:05:21.662Z,11
2023-02-27T23:07:05.359Z,11
2023-02-27T23:08:49.068Z,11
2023-02-27T23:10:32.997Z,11
2023-02-27T23:12:16.476Z,11
2023-02-27T23:14:00.182Z,11
2023-02-27T23:15:43.877Z,11
2023-02-27T23:17:27.587Z,11
2023-02-27T23:19:11.305Z,2
2023-02-27T23:20:54.986Z,2
2023-02-27T23:22:38.702Z,2
2023-02-27T23:24:22.468Z,2
2023-02-27T23:26:06.108Z,3
2023-02-27T23:27:49.815Z,2
2023-02-27T23:29:33.505Z,3
2023-02-27T23:31:17.206Z,3
2023-02-27T23:33:00.916Z,2
2023-02-27T23:34:44.629Z,2
2023-02-27T23:36:28.319Z,3
2023-02-27T23:38:12.020Z,2
2023-02-27T23:39:55.774Z,2
2023-02-27T23:41:39.426Z,2
2023-02-27T23:43:23.121Z,3
2023-02-27T23:45:06.915Z,2
2023-02-27T23:46:50.536Z,2
2023-02-27T23:48:34.237Z,2
2023-02-27T23:50:17.941Z,1
2023-02-27T23:52:01.647Z,11
2023-02-27T23:53:45.338Z,11
2023-02-27T23:55:29.049Z,10
2023-02-27T23:57:12.758Z,2
2023-02-27T23:58:56.456Z,3
